Time;durP1;ratioP1;P1;durP2;ratioP2;P2;SDS_P1;SDS_P2;PMS_P1;PMS_P2;Temp;Humidity;BMP_temperature;BMP_pressure;BME280_temperature;BME280_humidity;BME280_pressure;Samples;Min_cycle;Max_cycle;Signal;HPM_P1;HPM_P2
2022/03/07 00:02:09;;;;;;;21.23;16.90;;;2.30;99.90;;;;;;4948898;28;20207;-82
2022/03/07 00:04:36;;;;;;;22.50;16.67;;;2.10;99.90;;;;;;4957526;28;20230;-84
2022/03/07 00:07:02;;;;;;;24.73;17.00;;;2.00;99.90;;;;;;4958085;28;20192;-83
2022/03/07 00:09:28;;;;;;;22.87;17.00;;;1.90;99.90;;;;;;4954740;28;20178;-84
2022/03/07 00:11:54;;;;;;;24.00;17.77;;;1.80;99.90;;;;;;4951359;28;20649;-83
2022/03/07 00:14:20;;;;;;;26.33;18.47;;;1.50;99.90;;;;;;4949546;28;20216;-84
2022/03/07 00:16:46;;;;;;;20.63;15.27;;;1.60;99.90;;;;;;4951929;28;20180;-84
2022/03/07 00:19:12;;;;;;;24.40;17.30;;;1.80;99.90;;;;;;4967578;28;20164;-84
2022/03/07 00:21:38;;;;;;;24.07;16.50;;;1.90;99.90;;;;;;4952950;28;20188;-84
2022/03/07 00:24:06;;;;;;;31.53;18.37;;;1.80;99.90;;;;;;4963728;28;20204;-84
2022/03/07 00:26:32;;;;;;;24.43;17.13;;;1.60;99.90;;;;;;4948118;28;20184;-84
2022/03/07 00:28:58;;;;;;;22.87;16.43;;;1.60;99.90;;;;;;4950120;28;20195;-83
2022/03/07 00:31:24;;;;;;;26.67;17.43;;;1.70;99.90;;;;;;4948753;28;20276;-83
2022/03/07 00:33:51;;;;;;;25.70;16.23;;;1.70;99.90;;;;;;4948463;28;20722;-83
2022/03/07 00:36:18;;;;;;;24.00;16.23;;;1.90;99.90;;;;;;4955666;28;20176;-84
2022/03/07 00:38:44;;;;;;;25.83;16.60;;;2.10;99.90;;;;;;4947007;28;20176;-84
2022/03/07 00:41:11;;;;;;;21.07;15.53;;;2.20;99.90;;;;;;4947542;28;20206;-84
2022/03/07 00:43:39;;;;;;;22.03;15.93;;;2.20;99.90;;;;;;4954342;28;20206;-83
2022/03/07 00:46:05;;;;;;;22.87;15.60;;;2.20;99.90;;;;;;4951342;28;20616;-83
2022/03/07 00:48:31;;;;;;;21.93;15.43;;;2.20;99.90;;;;;;4951481;28;20180;-83
2022/03/07 00:50:57;;;;;;;21.40;15.33;;;2.30;99.90;;;;;;4959930;28;20211;-83
2022/03/07 00:53:25;;;;;;;21.03;16.30;;;2.40;99.90;;;;;;4960548;28;20215;-84
2022/03/07 00:55:52;;;;;;;23.53;15.80;;;2.30;99.90;;;;;;4961150;28;20226;-83
2022/03/07 00:58:18;;;;;;;22.90;16.13;;;2.20;99.90;;;;;;4960842;28;20172;-83
2022/03/07 01:00:47;;;;;;;27.70;17.00;;;2.20;99.90;;;;;;4961822;28;20184;-83
2022/03/07 01:03:13;;;;;;;21.33;15.50;;;2.20;99.90;;;;;;4961103;28;20223;-83
2022/03/07 01:05:41;;;;;;;22.93;16.40;;;2.20;99.90;;;;;;4961278;28;20169;-83
2022/03/07 01:08:08;;;;;;;20.30;16.30;;;2.10;99.90;;;;;;4959847;28;20179;-83
2022/03/07 01:10:34;;;;;;;21.77;16.33;;;2.00;99.90;;;;;;4960730;28;20196;-83
2022/03/07 01:13:01;;;;;;;22.47;15.93;;;2.10;99.90;;;;;;4957454;28;20231;-83
2022/03/07 01:15:26;;;;;;;21.10;16.00;;;2.00;99.90;;;;;;4976905;28;20180;-84
2022/03/07 01:17:54;;;;;;;25.50;15.43;;;2.00;99.90;;;;;;4956122;28;20235;-83
2022/03/07 01:20:20;;;;;;;22.47;15.20;;;2.00;99.90;;;;;;4966159;28;20639;-83
2022/03/07 01:22:46;;;;;;;22.93;16.70;;;2.10;99.90;;;;;;4951091;28;20176;-84
2022/03/07 01:25:12;;;;;;;21.63;15.20;;;2.10;99.90;;;;;;4950154;28;20632;-84
2022/03/07 01:27:38;;;;;;;24.33;16.00;;;2.00;99.90;;;;;;4949469;28;20234;-84
2022/03/07 01:30:05;;;;;;;23.10;15.90;;;2.10;99.90;;;;;;4949325;28;20199;-83
2022/03/07 01:32:31;;;;;;;23.53;16.10;;;2.10;99.90;;;;;;4950086;28;20180;-83
2022/03/07 01:34:58;;;;;;;21.67;15.67;;;2.00;99.90;;;;;;4952445;28;20200;-83
2022/03/07 01:37:23;;;;;;;22.37;16.70;;;1.90;99.90;;;;;;4950940;28;20179;-84
2022/03/07 01:39:49;;;;;;;22.30;15.83;;;1.90;99.90;;;;;;4950967;28;20172;-83
2022/03/07 01:42:15;;;;;;;20.53;14.40;;;1.90;99.90;;;;;;4951361;28;20312;-83
2022/03/07 01:44:41;;;;;;;20.60;15.10;;;2.00;99.90;;;;;;4956504;28;20200;-83
2022/03/07 01:47:07;;;;;;;22.97;16.63;;;2.10;99.90;;;;;;4961120;28;20258;-83
2022/03/07 01:49:35;;;;;;;23.30;15.20;;;2.10;99.90;;;;;;4955262;28;20211;-83
2022/03/07 01:52:01;;;;;;;21.50;15.53;;;2.10;99.90;;;;;;4952638;28;20211;-84
2022/03/07 01:54:30;;;;;;;21.57;15.23;;;2.00;99.90;;;;;;4953946;28;20564;-84
2022/03/07 01:56:56;;;;;;;22.27;16.23;;;2.00;99.90;;;;;;4965854;28;20176;-83
2022/03/07 01:59:27;;;;;;;24.33;16.33;;;1.90;99.90;;;;;;4951335;28;20176;-83
2022/03/07 02:01:54;;;;;;;19.67;14.87;;;1.80;99.90;;;;;;4949538;28;20176;-83
2022/03/07 02:04:22;;;;;;;20.87;15.87;;;1.80;99.90;;;;;;4958126;28;20303;-84
2022/03/07 02:06:48;;;;;;;23.50;15.33;;;1.70;99.90;;;;;;4952123;28;20543;-83
2022/03/07 02:09:16;;;;;;;22.50;16.37;;;1.80;99.90;;;;;;4949092;28;20271;-84
2022/03/07 02:11:44;;;;;;;24.67;16.53;;;1.70;99.90;;;;;;4949286;28;20234;-83
2022/03/07 02:14:17;;;;;;;20.50;15.27;;;1.60;99.90;;;;;;4949849;28;20291;-83
2022/03/07 02:16:46;;;;;;;20.70;14.67;;;1.60;99.90;;;;;;4948528;28;20283;-83
2022/03/07 02:19:13;;;;;;;21.30;15.37;;;1.60;99.90;;;;;;4947981;28;20230;-82
2022/03/07 02:21:52;;;;;;;20.77;15.30;;;1.50;99.90;;;;;;4948485;28;20179;-83
2022/03/07 02:24:24;;;;;;;23.93;15.77;;;1.40;99.90;;;;;;4949708;28;20292;-82
2022/03/07 02:27:00;;;;;;;20.60;15.13;;;1.60;99.90;;;;;;4950594;28;20176;-82
2022/03/07 02:29:28;;;;;;;22.97;15.47;;;1.60;99.90;;;;;;4948693;28;20203;-82
2022/03/07 02:31:57;;;;;;;22.93;15.63;;;1.80;99.90;;;;;;4951054;28;20227;-82
2022/03/07 02:34:25;;;;;;;23.17;15.20;;;1.50;99.90;;;;;;4948402;28;20220;-83
2022/03/07 02:36:52;;;;;;;20.13;15.73;;;1.40;99.90;;;;;;4949721;28;20176;-83
2022/03/07 02:39:19;;;;;;;26.00;17.37;;;1.20;99.90;;;;;;4947551;28;20257;-83
2022/03/07 02:41:45;;;;;;;23.30;16.10;;;1.20;99.90;;;;;;4947546;28;20176;-82
2022/03/07 02:44:12;;;;;;;24.47;15.67;;;1.10;99.90;;;;;;4963535;28;20206;-82
2022/03/07 02:46:38;;;;;;;25.37;17.23;;;1.00;99.90;;;;;;4946892;28;20187;-83
2022/03/07 02:49:05;;;;;;;25.63;17.07;;;1.00;99.90;;;;;;4947292;28;20188;-84
2022/03/07 02:51:32;;;;;;;24.07;16.50;;;0.90;99.90;;;;;;4948140;28;20227;-82
2022/03/07 02:53:58;;;;;;;23.43;16.53;;;0.90;99.90;;;;;;4948474;28;20191;-82
2022/03/07 02:56:24;;;;;;;25.57;16.93;;;1.00;99.90;;;;;;4948306;28;20180;-83
2022/03/07 02:58:49;;;;;;;23.60;17.43;;;1.20;99.90;;;;;;4947884;28;20172;-82
2022/03/07 03:01:15;;;;;;;25.97;16.10;;;1.30;99.90;;;;;;4956583;28;20247;-83
2022/03/07 03:03:41;;;;;;;28.63;17.40;;;1.30;99.90;;;;;;4950865;28;20358;-83
2022/03/07 03:06:07;;;;;;;25.00;16.80;;;1.20;99.90;;;;;;4976098;23;21462;-81
2022/03/07 03:08:34;;;;;;;20.77;15.60;;;1.20;99.90;;;;;;4962678;28;20235;-81
2022/03/07 03:11:01;;;;;;;23.33;16.33;;;1.20;99.90;;;;;;4964780;28;20244;-81
2022/03/07 03:13:27;;;;;;;22.23;15.07;;;1.40;99.90;;;;;;4968554;28;20631;-82
2022/03/07 03:15:54;;;;;;;27.10;15.80;;;1.40;99.90;;;;;;4969880;28;20176;-82
2022/03/07 03:18:20;;;;;;;21.20;14.50;;;1.40;99.90;;;;;;4980533;28;20182;-83
2022/03/07 03:20:47;;;;;;;22.40;14.83;;;1.60;99.90;;;;;;4980627;28;20701;-83
2022/03/07 03:23:13;;;;;;;22.93;15.83;;;1.60;99.90;;;;;;4994580;28;20171;-83
2022/03/07 03:25:39;;;;;;;22.17;15.87;;;1.70;99.90;;;;;;4978611;28;20187;-82
2022/03/07 03:28:05;;;;;;;25.93;15.37;;;1.70;99.90;;;;;;4978598;28;20175;-83
2022/03/07 03:30:31;;;;;;;20.30;14.70;;;1.60;99.90;;;;;;4974962;28;20676;-83
2022/03/07 03:32:57;;;;;;;21.80;13.93;;;1.80;99.90;;;;;;4968656;28;20186;-83
2022/03/07 03:35:23;;;;;;;21.47;15.17;;;1.70;99.90;;;;;;4973934;28;20172;-83
2022/03/07 03:37:49;;;;;;;20.67;13.50;;;1.70;99.90;;;;;;4970926;28;20215;-83
2022/03/07 03:40:14;;;;;;;20.10;14.43;;;1.70;99.90;;;;;;4976443;28;20175;-82
2022/03/07 03:42:40;;;;;;;22.03;14.90;;;1.60;99.90;;;;;;4972190;28;20183;-81
2022/03/07 03:45:10;;;;;;;19.57;13.80;;;1.70;99.90;;;;;;4973596;28;20194;-82
2022/03/07 03:47:39;;;;;;;21.37;14.33;;;1.70;99.90;;;;;;4984631;28;20208;-82
2022/03/07 03:50:08;;;;;;;22.20;15.30;;;1.70;99.90;;;;;;4978463;28;20203;-82
2022/03/07 03:52:34;;;;;;;21.93;15.27;;;1.60;99.90;;;;;;4977918;28;20184;-83
2022/03/07 03:55:02;;;;;;;18.80;15.10;;;1.40;99.90;;;;;;4975269;28;20223;-82
2022/03/07 03:57:28;;;;;;;18.80;13.83;;;1.30;99.90;;;;;;4973257;28;20196;-83
2022/03/07 03:59:55;;;;;;;26.03;16.10;;;1.40;99.90;;;;;;4967831;28;20176;-83
2022/03/07 04:02:21;;;;;;;22.00;15.00;;;1.50;99.90;;;;;;4968580;28;20223;-83
2022/03/07 04:04:47;;;;;;;21.03;15.13;;;1.40;99.90;;;;;;4971538;28;20191;-82
2022/03/07 04:07:12;;;;;;;21.20;15.90;;;1.60;99.90;;;;;;4970666;28;20263;-82
2022/03/07 04:09:38;;;;;;;22.10;14.53;;;1.50;99.90;;;;;;4975070;28;20203;-82
2022/03/07 04:12:05;;;;;;;20.13;14.77;;;1.40;99.90;;;;;;4965503;28;20200;-83
2022/03/07 04:14:38;;;;;;;21.07;14.43;;;1.40;99.90;;;;;;4969093;28;20180;-82
2022/03/07 04:17:03;;;;;;;19.40;13.73;;;1.40;99.90;;;;;;4979358;28;20231;-83
2022/03/07 04:19:29;;;;;;;19.30;14.23;;;1.40;99.90;;;;;;4978189;28;20274;-83
2022/03/07 04:21:56;;;;;;;21.70;15.67;;;1.50;99.90;;;;;;4971402;28;20195;-82
2022/03/07 04:24:21;;;;;;;23.77;15.47;;;1.40;99.90;;;;;;4975918;28;20187;-83
2022/03/07 04:26:47;;;;;;;21.10;15.70;;;1.40;99.90;;;;;;4968251;28;20670;-83
2022/03/07 04:29:13;;;;;;;23.73;16.07;;;1.40;99.90;;;;;;4979931;28;20230;-83
2022/03/07 04:31:41;;;;;;;23.23;15.40;;;1.30;99.90;;;;;;4976894;28;20208;-83
2022/03/07 04:34:07;;;;;;;23.37;15.50;;;1.30;99.90;;;;;;4992562;28;20222;-83
2022/03/07 04:36:35;;;;;;;20.47;16.33;;;1.20;99.90;;;;;;4972446;28;20203;-83
2022/03/07 04:39:02;;;;;;;19.97;14.93;;;1.20;99.90;;;;;;4954068;28;20207;-83
2022/03/07 04:41:27;;;;;;;20.60;15.87;;;0.90;99.90;;;;;;4972628;28;20172;-83
2022/03/07 04:43:53;;;;;;;22.30;15.60;;;0.90;99.90;;;;;;4976320;28;20198;-83
2022/03/07 04:46:19;;;;;;;27.13;16.77;;;0.50;99.90;;;;;;4971728;28;20212;-82
2022/03/07 04:48:45;;;;;;;20.83;14.20;;;0.60;99.90;;;;;;4984966;28;20204;-82
2022/03/07 04:51:11;;;;;;;21.00;15.07;;;0.90;99.90;;;;;;4976555;28;20215;-83
2022/03/07 04:53:41;;;;;;;19.27;14.90;;;1.00;99.90;;;;;;4973650;28;20219;-83
2022/03/07 04:56:08;;;;;;;21.37;15.27;;;0.90;99.90;;;;;;4973601;28;20226;-83
2022/03/07 04:58:35;;;;;;;21.17;14.63;;;0.90;99.90;;;;;;4972407;28;20180;-83
2022/03/07 05:01:01;;;;;;;22.13;16.07;;;0.60;99.90;;;;;;4972999;28;20176;-83
2022/03/07 05:03:26;;;;;;;20.90;16.30;;;0.50;99.90;;;;;;4970228;28;20247;-84
2022/03/07 05:05:52;;;;;;;21.17;15.37;;;0.30;99.90;;;;;;4973687;28;20643;-83
2022/03/07 05:08:18;;;;;;;21.00;14.40;;;0.40;99.90;;;;;;4970578;28;20184;-83
2022/03/07 05:10:44;;;;;;;20.00;15.13;;;0.60;99.90;;;;;;4970023;28;20199;-83
2022/03/07 05:13:10;;;;;;;23.07;15.17;;;0.60;99.90;;;;;;4976301;28;20178;-83
2022/03/07 05:15:36;;;;;;;23.53;14.47;;;0.70;99.90;;;;;;4977063;28;20175;-83
2022/03/07 05:18:05;;;;;;;20.80;14.27;;;0.80;99.90;;;;;;4972883;28;20255;-83
2022/03/07 05:20:30;;;;;;;25.50;16.57;;;0.80;99.90;;;;;;4973318;28;20183;-83
2022/03/07 05:22:56;;;;;;;18.50;13.50;;;0.60;99.90;;;;;;4972349;28;20292;-83
2022/03/07 05:25:23;;;;;;;18.63;14.50;;;0.50;99.90;;;;;;4969696;28;20180;-83
2022/03/07 05:27:49;;;;;;;21.60;14.43;;;0.30;99.90;;;;;;4974019;28;20203;-83
2022/03/07 05:30:21;;;;;;;17.23;13.73;;;0.50;99.90;;;;;;4972408;28;20210;-83
2022/03/07 05:32:50;;;;;;;21.07;14.00;;;0.80;99.90;;;;;;4957647;28;20187;-84
2022/03/07 05:35:16;;;;;;;18.73;14.27;;;0.90;99.90;;;;;;4972238;28;20195;-84
2022/03/07 05:37:42;;;;;;;22.37;14.20;;;0.60;99.90;;;;;;4975642;28;20203;-82
2022/03/07 05:40:10;;;;;;;22.00;14.80;;;0.40;99.90;;;;;;4971496;28;20203;-83
2022/03/07 05:42:37;;;;;;;20.73;13.83;;;0.30;99.90;;;;;;4962000;28;20231;-83
2022/03/07 05:45:06;;;;;;;21.33;14.13;;;0.30;99.90;;;;;;4973482;28;20168;-83
2022/03/07 05:47:32;;;;;;;18.17;14.23;;;0.30;99.90;;;;;;4973393;28;20196;-83
2022/03/07 05:49:58;;;;;;;17.60;13.60;;;0.60;99.90;;;;;;4977577;28;20329;-83
2022/03/07 05:52:23;;;;;;;20.93;14.47;;;0.50;99.90;;;;;;4973564;28;20534;-84
2022/03/07 05:54:49;;;;;;;18.57;14.00;;;0.50;99.90;;;;;;4974280;28;20180;-84
2022/03/07 05:57:15;;;;;;;19.83;15.23;;;0.40;99.90;;;;;;4973697;28;20201;-83
2022/03/07 05:59:41;;;;;;;19.77;13.03;;;0.20;99.90;;;;;;4962373;28;20179;-83
2022/03/07 06:02:07;;;;;;;20.90;13.77;;;0.50;99.90;;;;;;4970897;28;20175;-83
2022/03/07 06:04:32;;;;;;;22.57;13.97;;;0.50;99.90;;;;;;4968343;28;20182;-83
2022/03/07 06:06:58;;;;;;;19.73;14.20;;;0.20;99.90;;;;;;4972489;28;20238;-81
2022/03/07 06:09:24;;;;;;;23.00;14.70;;;0.10;99.90;;;;;;4977605;28;20179;-82
2022/03/07 06:11:50;;;;;;;22.57;15.03;;;0.00;99.90;;;;;;4978722;28;20304;-83
2022/03/07 06:14:15;;;;;;;26.80;15.50;;;-0.10;99.90;;;;;;4969407;28;20179;-83
2022/03/07 06:16:41;;;;;;;21.10;14.20;;;-0.10;99.90;;;;;;4971711;28;20226;-83
2022/03/07 06:19:07;;;;;;;23.83;14.67;;;0.10;99.90;;;;;;4975685;28;20167;-83
2022/03/07 06:21:33;;;;;;;22.13;14.53;;;0.40;99.90;;;;;;4978339;28;20197;-83
2022/03/07 06:23:58;;;;;;;19.17;13.93;;;0.30;99.90;;;;;;4975672;28;20241;-83
2022/03/07 06:26:24;;;;;;;19.73;14.60;;;0.20;99.90;;;;;;4970884;28;20195;-83
2022/03/07 06:28:53;;;;;;;20.90;13.33;;;0.40;99.90;;;;;;4971936;28;20194;-83
2022/03/07 06:31:19;;;;;;;26.60;14.30;;;0.40;99.90;;;;;;4983612;28;20187;-83
2022/03/07 06:33:44;;;;;;;24.57;14.57;;;0.20;99.90;;;;;;4985185;28;20176;-82
2022/03/07 06:36:10;;;;;;;19.83;14.23;;;0.00;99.90;;;;;;4985488;28;20227;-83
2022/03/07 06:38:39;;;;;;;26.30;14.87;;;-0.10;99.90;;;;;;4980969;28;20230;-83
2022/03/07 06:41:05;;;;;;;20.27;14.83;;;-0.10;99.90;;;;;;4985817;28;20187;-83
2022/03/07 06:43:32;;;;;;;19.60;14.27;;;0.00;99.90;;;;;;4973728;28;20180;-82
2022/03/07 06:45:57;;;;;;;18.73;13.13;;;0.00;99.90;;;;;;4978447;28;20202;-82
2022/03/07 06:48:23;;;;;;;19.90;13.23;;;0.10;99.90;;;;;;4972914;28;20300;-82
2022/03/07 06:50:49;;;;;;;19.37;12.57;;;0.50;99.90;;;;;;4977316;28;20211;-83
2022/03/07 06:53:15;;;;;;;28.07;13.67;;;0.80;99.90;;;;;;4973924;28;20236;-82
2022/03/07 06:55:40;;;;;;;17.87;12.50;;;0.80;99.90;;;;;;4977257;28;20182;-82
2022/03/07 06:58:07;;;;;;;20.87;13.00;;;1.00;99.90;;;;;;4977592;28;20194;-82
2022/03/07 07:00:32;;;;;;;17.90;12.03;;;1.10;99.90;;;;;;4971519;28;20191;-82
2022/03/07 07:02:58;;;;;;;23.33;13.07;;;1.40;99.90;;;;;;4977191;28;20179;-83
2022/03/07 07:05:24;;;;;;;21.50;13.07;;;1.50;99.90;;;;;;4974963;28;20233;-83
2022/03/07 07:07:51;;;;;;;16.23;12.17;;;1.40;99.90;;;;;;4967114;28;20686;-83
2022/03/07 07:10:18;;;;;;;20.50;13.00;;;1.30;99.90;;;;;;4975869;28;20238;-83
2022/03/07 07:12:49;;;;;;;18.20;13.13;;;1.10;99.90;;;;;;4978730;28;20179;-84
2022/03/07 07:15:15;;;;;;;21.43;14.20;;;0.90;99.90;;;;;;4976816;28;20187;-82
2022/03/07 07:17:41;;;;;;;22.97;14.43;;;0.70;99.90;;;;;;4975626;28;20290;-84
2022/03/07 07:20:08;;;;;;;23.40;15.87;;;0.50;99.90;;;;;;4973833;28;20265;-83
2022/03/07 07:22:34;;;;;;;22.80;15.40;;;0.50;99.90;;;;;;4968701;28;20230;-83
2022/03/07 07:25:07;;;;;;;23.60;15.53;;;0.40;99.90;;;;;;4970807;28;20200;-83
2022/03/07 07:27:32;;;;;;;22.90;15.93;;;0.40;99.90;;;;;;4969926;28;20608;-83
2022/03/07 07:29:58;;;;;;;20.23;14.70;;;0.50;99.90;;;;;;4971580;28;20195;-83
2022/03/07 07:32:25;;;;;;;22.53;15.70;;;0.50;99.90;;;;;;4969112;28;20175;-83
2022/03/07 07:34:54;;;;;;;22.70;16.00;;;0.40;99.90;;;;;;4978731;28;20659;-83
2022/03/07 07:37:20;;;;;;;22.30;15.20;;;0.30;99.90;;;;;;4977875;28;20250;-83
2022/03/07 07:39:46;;;;;;;22.13;15.47;;;0.30;99.90;;;;;;4983306;28;20180;-83
2022/03/07 07:42:12;;;;;;;19.40;14.17;;;0.20;99.90;;;;;;4987968;28;20171;-83
2022/03/07 07:44:38;;;;;;;26.73;15.23;;;0.20;99.90;;;;;;4987580;28;20189;-83
2022/03/07 07:47:04;;;;;;;23.30;15.77;;;0.20;99.90;;;;;;4984048;28;20187;-83
2022/03/07 07:49:31;;;;;;;25.17;16.00;;;0.10;99.90;;;;;;4979380;28;20205;-82
2022/03/07 07:51:57;;;;;;;26.40;16.53;;;0.20;99.90;;;;;;4987860;28;20304;-83
2022/03/07 07:54:23;;;;;;;23.27;16.10;;;0.30;99.90;;;;;;4982031;28;20182;-82
2022/03/07 07:56:49;;;;;;;22.60;15.57;;;0.60;99.90;;;;;;4981153;28;20231;-83
2022/03/07 07:59:19;;;;;;;20.90;15.47;;;0.70;99.90;;;;;;4972442;28;20172;-83
2022/03/07 08:01:45;;;;;;;21.27;15.27;;;0.70;99.90;;;;;;4965607;28;20183;-83
2022/03/07 08:04:12;;;;;;;24.27;15.07;;;0.50;99.90;;;;;;4975265;28;20299;-83
2022/03/07 08:06:39;;;;;;;23.23;15.23;;;0.40;99.90;;;;;;4978539;28;20220;-84
2022/03/07 08:09:09;;;;;;;21.40;15.13;;;0.30;99.90;;;;;;4979172;28;20246;-83
2022/03/07 08:11:35;;;;;;;21.23;15.70;;;0.40;99.90;;;;;;4977143;28;20205;-83
2022/03/07 08:14:01;;;;;;;23.83;16.50;;;0.40;99.90;;;;;;4979945;28;20226;-83
2022/03/07 08:16:27;;;;;;;24.30;16.13;;;0.40;99.90;;;;;;4977379;28;20198;-83
2022/03/07 08:18:52;;;;;;;23.80;16.50;;;0.40;99.90;;;;;;4980464;28;20168;-83
2022/03/07 08:21:25;;;;;;;22.60;16.93;;;0.40;99.90;;;;;;4989165;28;20233;-83
2022/03/07 08:23:54;;;;;;;22.13;17.00;;;0.50;99.90;;;;;;4988473;28;20211;-83
2022/03/07 08:26:20;;;;;;;24.47;16.23;;;0.60;99.90;;;;;;4986566;28;20194;-83
2022/03/07 08:28:46;;;;;;;24.53;18.07;;;0.50;99.90;;;;;;4982706;28;20180;-83
2022/03/07 08:31:12;;;;;;;20.63;15.80;;;0.40;99.90;;;;;;4977027;28;20241;-83
2022/03/07 08:33:37;;;;;;;25.33;16.07;;;0.60;99.90;;;;;;4981783;28;20194;-83
2022/03/07 08:36:04;;;;;;;21.63;15.33;;;0.90;99.90;;;;;;4979661;28;20209;-83
2022/03/07 08:38:29;;;;;;;23.93;16.27;;;1.10;99.90;;;;;;4979191;28;20182;-82
2022/03/07 08:40:55;;;;;;;22.50;15.37;;;1.10;99.90;;;;;;4976825;28;20199;-83
2022/03/07 08:43:21;;;;;;;17.83;14.27;;;1.20;99.90;;;;;;4974430;28;20276;-83
2022/03/07 08:45:47;;;;;;;19.90;14.57;;;1.20;99.90;;;;;;4975238;28;20177;-83
2022/03/07 08:48:13;;;;;;;17.33;13.53;;;1.30;99.90;;;;;;4977616;28;20187;-83
2022/03/07 08:50:39;;;;;;;19.17;15.53;;;1.20;99.90;;;;;;4979200;28;20223;-84
2022/03/07 08:53:05;;;;;;;21.03;15.53;;;1.20;99.90;;;;;;4973953;28;20205;-83
2022/03/07 08:55:31;;;;;;;21.80;16.70;;;1.30;99.90;;;;;;4978756;28;20184;-83
2022/03/07 08:57:56;;;;;;;22.40;15.87;;;1.30;99.90;;;;;;4975873;28;20198;-83
2022/03/07 09:00:22;;;;;;;19.90;14.50;;;1.30;99.90;;;;;;4977159;28;20191;-83
2022/03/07 09:02:48;;;;;;;21.37;15.33;;;1.40;99.90;;;;;;4977272;28;20230;-83
2022/03/07 09:05:14;;;;;;;21.40;15.67;;;1.70;99.90;;;;;;4982356;28;20192;-84
2022/03/07 09:07:39;;;;;;;19.80;14.07;;;1.80;99.90;;;;;;4981350;28;20218;-84
2022/03/07 09:10:06;;;;;;;16.97;13.47;;;1.90;99.90;;;;;;4977029;28;20182;-84
2022/03/07 09:12:32;;;;;;;15.87;12.73;;;1.80;99.90;;;;;;4968436;28;20175;-83
2022/03/07 09:15:00;;;;;;;16.37;12.50;;;1.80;99.90;;;;;;4978659;28;20194;-82
2022/03/07 09:17:27;;;;;;;17.67;13.20;;;1.90;99.90;;;;;;4974150;28;20215;-83
2022/03/07 09:19:56;;;;;;;17.23;12.33;;;1.90;99.90;;;;;;4974837;28;20657;-82
2022/03/07 09:22:23;;;;;;;15.93;12.70;;;1.80;99.90;;;;;;4979068;28;20180;-84
2022/03/07 09:24:49;;;;;;;18.57;13.20;;;1.80;99.90;;;;;;4975402;28;20195;-83
2022/03/07 09:27:15;;;;;;;18.90;13.50;;;1.80;99.90;;;;;;4978263;28;20244;-83
2022/03/07 09:29:40;;;;;;;17.97;14.13;;;1.90;99.90;;;;;;4980688;28;20191;-83
2022/03/07 09:32:07;;;;;;;17.57;13.80;;;1.90;99.90;;;;;;4976072;28;20286;-82
2022/03/07 09:34:34;;;;;;;16.80;13.97;;;1.90;99.90;;;;;;4977593;28;20200;-84
2022/03/07 09:37:02;;;;;;;17.30;13.40;;;1.90;99.90;;;;;;4976652;28;20222;-85
2022/03/07 09:39:28;;;;;;;18.60;14.13;;;1.90;99.90;;;;;;4977230;28;20179;-83
2022/03/07 09:41:54;;;;;;;14.37;12.83;;;2.00;99.90;;;;;;4973843;28;20176;-83
2022/03/07 09:44:20;;;;;;;16.97;14.13;;;2.10;99.90;;;;;;4980693;28;20215;-83
2022/03/07 09:46:49;;;;;;;20.57;13.47;;;2.20;99.90;;;;;;4970282;28;20203;-84
2022/03/07 09:49:15;;;;;;;16.70;13.23;;;2.40;99.90;;;;;;4989497;28;20206;-84
2022/03/07 09:51:40;;;;;;;16.33;12.90;;;2.30;99.90;;;;;;4979384;28;20208;-84
2022/03/07 09:54:07;;;;;;;17.03;12.80;;;2.40;99.90;;;;;;4975714;28;20199;-84
2022/03/07 09:56:33;;;;;;;19.10;13.00;;;2.50;99.90;;;;;;4976106;28;20206;-84
2022/03/07 09:58:59;;;;;;;16.80;12.43;;;2.50;99.90;;;;;;4975205;28;20632;-85
2022/03/07 10:01:25;;;;;;;16.97;12.57;;;2.50;99.90;;;;;;4975856;28;20187;-83
2022/03/07 10:03:53;;;;;;;17.37;11.40;;;2.60;99.90;;;;;;4984216;28;20184;-83
2022/03/07 10:06:19;;;;;;;23.17;13.23;;;2.70;99.90;;;;;;4985255;28;20202;-83
2022/03/07 10:08:54;;;;;;;15.07;11.80;;;2.80;99.90;;;;;;4982771;28;20614;-84
2022/03/07 10:11:21;;;;;;;14.40;11.67;;;3.00;99.90;;;;;;4964335;28;20199;-84
2022/03/07 10:13:51;;;;;;;14.30;10.83;;;3.00;99.90;;;;;;4985535;28;20195;-84
2022/03/07 10:16:20;;;;;;;15.43;10.63;;;3.10;99.90;;;;;;4983950;28;20199;-84
2022/03/07 10:18:53;;;;;;;13.60;10.70;;;3.20;99.90;;;;;;4983808;28;20540;-83
2022/03/07 10:21:25;;;;;;;17.20;10.93;;;3.40;99.90;;;;;;4982422;28;20188;-84
2022/03/07 10:23:56;;;;;;;14.07;10.17;;;3.50;99.90;;;;;;4986594;28;20198;-84
2022/03/07 10:26:22;;;;;;;13.50;10.60;;;3.70;99.90;;;;;;4984968;28;20218;-84
2022/03/07 10:28:57;;;;;;;12.93;10.63;;;4.00;99.90;;;;;;4984068;28;20200;-84
2022/03/07 10:31:24;;;;;;;10.57;9.27;;;4.40;99.90;;;;;;4963748;28;20203;-84
2022/03/07 10:34:08;;;;;;;16.40;11.30;;;4.90;99.90;;;;;;4982630;28;20177;-85
2022/03/07 10:36:41;;;;;;;13.50;9.70;;;5.60;99.90;;;;;;4983855;28;20204;-84
2022/03/07 10:39:09;;;;;;;12.43;9.60;;;6.20;99.90;;;;;;4981074;28;20168;-84
2022/03/07 10:41:44;;;;;;;9.27;8.27;;;6.40;99.90;;;;;;4983027;28;20181;-84
2022/03/07 10:44:22;;;;;;;10.67;8.33;;;6.80;99.90;;;;;;4981949;28;20173;-84
2022/03/07 10:46:47;;;;;;;13.67;8.67;;;7.10;99.90;;;;;;4978391;28;20211;-84
2022/03/07 10:49:16;;;;;;;9.47;7.77;;;7.50;99.90;;;;;;4983988;28;20186;-84
2022/03/07 10:51:52;;;;;;;11.77;8.17;;;7.70;98.50;;;;;;4996306;28;20666;-85
2022/03/07 10:54:19;;;;;;;7.97;5.83;;;8.10;98.80;;;;;;4977209;28;20176;-84
2022/03/07 10:56:55;;;;;;;14.23;6.47;;;8.60;95.60;;;;;;4980121;28;20195;-86
2022/03/07 10:59:28;;;;;;;3.07;2.40;;;8.90;90.00;;;;;;4975056;28;20179;-84
2022/03/07 11:02:02;;;;;;;4.37;2.23;;;9.30;71.10;;;;;;4976218;28;20176;-84
2022/03/07 11:04:29;;;;;;;4.27;2.20;;;9.40;63.10;;;;;;4977557;28;20195;-85
2022/03/07 11:06:55;;;;;;;8.00;2.30;;;9.60;62.50;;;;;;4975881;28;20223;-84
2022/03/07 11:09:21;;;;;;;3.37;2.43;;;9.90;61.80;;;;;;4975717;28;20183;-84
2022/03/07 11:11:48;;;;;;;3.50;2.17;;;10.30;59.00;;;;;;4979744;28;20202;-84
2022/03/07 11:14:16;;;;;;;1.63;1.47;;;10.60;55.80;;;;;;4976903;28;20184;-84
2022/03/07 11:16:43;;;;;;;2.50;1.50;;;10.60;51.10;;;;;;4973610;28;20241;-84
2022/03/07 11:19:10;;;;;;;2.10;1.37;;;10.60;53.20;;;;;;4976391;28;20176;-83
2022/03/07 11:21:41;;;;;;;4.67;1.67;;;10.70;50.60;;;;;;4980068;28;20178;-83
2022/03/07 11:24:07;;;;;;;3.00;1.67;;;10.80;50.90;;;;;;4979285;28;20208;-84
2022/03/07 11:26:33;;;;;;;8.37;2.43;;;10.90;51.50;;;;;;4980079;28;20207;-84
2022/03/07 11:28:59;;;;;;;7.87;2.50;;;11.30;50.20;;;;;;4982816;28;20172;-84
2022/03/07 11:31:27;;;;;;;5.17;2.97;;;11.50;50.10;;;;;;4986068;28;20207;-84
2022/03/07 11:33:54;;;;;;;2.20;2.00;;;11.50;49.60;;;;;;4988609;28;20202;-84
2022/03/07 11:36:22;;;;;;;2.70;2.00;;;11.30;49.00;;;;;;4986600;28;20207;-83
2022/03/07 11:38:58;;;;;;;4.50;2.00;;;11.20;49.30;;;;;;4986559;28;20209;-83
2022/03/07 11:41:30;;;;;;;4.70;1.70;;;11.10;49.50;;;;;;4986880;28;20179;-83
2022/03/07 11:44:02;;;;;;;2.90;1.90;;;11.20;49.80;;;;;;5004636;28;20558;-83
2022/03/07 11:46:28;;;;;;;7.23;2.30;;;11.40;49.60;;;;;;4982688;28;20201;-84
2022/03/07 11:48:55;;;;;;;4.10;1.67;;;11.60;48.10;;;;;;4977958;28;20193;-83
2022/03/07 11:51:23;;;;;;;8.03;1.73;;;11.80;47.10;;;;;;4982461;28;20223;-83
2022/03/07 11:53:50;;;;;;;2.33;1.67;;;12.10;46.20;;;;;;4998865;28;20179;-84
2022/03/07 12:06:54;;;;;;;6.07;2.77;;;12.50;45.40;;;;;;4984567;28;20246;-84
2022/03/07 12:09:35;;;;;;;19.10;3.53;;;12.40;45.50;;;;;;4965757;28;20184;-84
2022/03/07 12:15:48;;;;;;;3.03;2.60;;;11.20;46.10;;;;;;5373265;23;20464;-86
2022/03/07 12:29:45;;;;;;;3.63;1.80;;;9.50;49.20;;;;;;4973533;28;20208;-84
2022/03/07 12:32:11;;;;;;;2.07;1.40;;;9.30;49.60;;;;;;4957483;29;20281;-83
2022/03/07 12:34:40;;;;;;;1.40;1.27;;;9.10;48.70;;;;;;4958133;29;20273;-83
2022/03/07 12:37:10;;;;;;;1.67;1.30;;;9.00;51.00;;;;;;4958466;29;20212;-83
2022/03/07 12:40:03;;;;;;;2.30;1.33;;;8.90;50.50;;;;;;4961168;29;20183;-83
2022/03/07 12:42:31;;;;;;;2.43;1.57;;;8.80;49.30;;;;;;4940921;29;20199;-83
2022/03/07 12:45:00;;;;;;;3.63;1.70;;;8.80;48.90;;;;;;4959189;29;20161;-83
2022/03/07 12:47:31;;;;;;;3.07;1.80;;;8.80;48.70;;;;;;4959581;29;20235;-83
2022/03/07 12:49:57;;;;;;;2.50;1.90;;;8.70;49.40;;;;;;4937023;29;20181;-84
2022/03/07 12:52:29;;;;;;;2.83;1.80;;;8.70;49.20;;;;;;4960713;29;20652;-84
2022/03/07 12:54:56;;;;;;;4.07;2.00;;;8.50;49.50;;;;;;4956994;29;20202;-83
2022/03/07 12:57:26;;;;;;;3.77;2.30;;;8.50;49.80;;;;;;4943422;29;20189;-85
2022/03/07 12:59:59;;;;;;;4.30;2.13;;;8.50;51.30;;;;;;4936045;29;20180;-85
2022/03/07 13:02:35;;;;;;;4.57;2.30;;;8.50;51.50;;;;;;4940797;29;20231;-85
2022/03/07 13:05:01;;;;;;;2.13;1.83;;;8.40;51.80;;;;;;4966067;29;20180;-84